createdAt,value
2018-06-25T00:00:52.704Z,20.50
2018-06-25T00:01:52.702Z,23.00
2018-06-25T00:02:52.696Z,21.70
2018-06-25T00:03:52.693Z,21.90
2018-06-25T00:04:52.690Z,21.00
2018-06-25T00:05:52.689Z,21.00
2018-06-25T00:06:52.692Z,22.70
2018-06-25T00:07:52.687Z,21.40
2018-06-25T00:08:52.687Z,23.00
2018-06-25T00:09:52.685Z,23.90
2018-06-25T00:10:52.676Z,21.30
2018-06-25T00:11:52.673Z,22.60
2018-06-25T00:12:52.676Z,22.80
2018-06-25T00:13:52.675Z,22.30
2018-06-25T00:14:52.671Z,22.40
2018-06-25T00:15:52.663Z,22.90
2018-06-25T00:16:52.662Z,23.40
2018-06-25T00:17:52.658Z,20.90
2018-06-25T00:18:52.661Z,24.40
2018-06-25T00:19:52.658Z,21.40
2018-06-25T00:20:52.655Z,21.70
2018-06-25T00:21:52.653Z,23.50
2018-06-25T00:22:52.647Z,22.00
2018-06-25T00:23:52.643Z,24.50
2018-06-25T00:24:52.643Z,23.20
2018-06-25T00:25:52.640Z,24.40
2018-06-25T00:26:52.642Z,23.40
2018-06-25T00:27:52.638Z,23.30
2018-06-25T00:28:52.632Z,23.00
2018-06-25T00:29:52.630Z,21.60
2018-06-25T00:30:52.631Z,22.80
2018-06-25T00:31:52.628Z,23.10
2018-06-25T00:32:52.625Z,23.50
2018-06-25T00:33:52.626Z,24.40
2018-06-25T00:34:52.617Z,22.00
2018-06-25T00:35:52.612Z,23.10
2018-06-25T00:36:52.611Z,24.10
2018-06-25T00:37:52.608Z,23.50
2018-06-25T00:38:52.610Z,22.50
2018-06-25T00:39:52.608Z,23.60
2018-06-25T00:40:52.603Z,24.70
2018-06-25T00:41:52.602Z,23.70
2018-06-25T00:42:52.595Z,23.30
2018-06-25T00:43:52.594Z,22.90
2018-06-25T00:44:52.593Z,22.60
2018-06-25T00:45:52.594Z,24.20
2018-06-25T00:46:52.590Z,24.50
2018-06-25T00:47:52.583Z,24.60
2018-06-25T00:48:52.581Z,26.00
2018-06-25T00:49:52.580Z,24.50
2018-06-25T00:50:52.594Z,24.90
2018-06-25T00:51:52.576Z,25.10
2018-06-25T00:52:52.574Z,24.30
2018-06-25T00:53:52.571Z,25.90
2018-06-25T00:54:52.563Z,24.40
2018-06-25T00:55:52.561Z,24.60
2018-06-25T00:56:52.557Z,25.50
2018-06-25T00:57:52.555Z,24.60
2018-06-25T00:58:52.558Z,25.20
2018-06-25T00:59:52.556Z,24.30
2018-06-25T01:00:52.551Z,23.80
2018-06-25T01:01:52.545Z,25.20
2018-06-25T01:02:52.545Z,23.80
2018-06-25T01:03:52.542Z,24.00
2018-06-25T01:04:52.541Z,24.30
2018-06-25T01:05:52.555Z,23.70
2018-06-25T01:06:52.530Z,24.50
2018-06-25T01:07:52.527Z,24.20
2018-06-25T01:08:52.530Z,24.00
2018-06-25T01:09:52.522Z,23.40
2018-06-25T01:10:52.526Z,22.90
2018-06-25T01:11:52.522Z,23.50
2018-06-25T01:12:52.518Z,24.20
2018-06-25T01:13:52.516Z,23.50
2018-06-25T01:14:52.509Z,22.60
2018-06-25T01:15:52.505Z,22.70
2018-06-25T01:16:52.507Z,23.10
2018-06-25T01:17:52.505Z,27.10
2018-06-25T01:18:52.500Z,22.50
2018-06-25T01:19:52.495Z,23.00
2018-06-25T01:20:52.492Z,22.40
2018-06-25T01:21:52.490Z,23.30
2018-06-25T01:22:52.493Z,22.40
2018-06-25T01:23:52.488Z,22.70
2018-06-25T01:24:52.487Z,23.60
2018-06-25T01:25:52.485Z,22.40
2018-06-25T01:26:52.478Z,20.70
2018-06-25T01:27:52.473Z,22.50
2018-06-25T01:28:52.472Z,22.80
2018-06-25T01:29:52.469Z,21.80
2018-06-25T01:30:52.470Z,21.30
2018-06-25T01:31:52.467Z,19.60
2018-06-25T01:32:52.460Z,22.70
2018-06-25T01:33:52.457Z,23.00
2018-06-25T01:34:52.461Z,23.50
2018-06-25T01:35:52.456Z,21.30
2018-06-25T01:36:52.455Z,23.30
2018-06-25T01:37:52.451Z,23.20
2018-06-25T01:38:52.444Z,22.30
2018-06-25T01:39:52.440Z,23.80
2018-06-25T01:40:52.438Z,22.40
2018-06-25T01:41:52.435Z,24.90
2018-06-25T01:42:52.438Z,25.30
2018-06-25T01:43:52.434Z,24.40
2018-06-25T01:44:52.432Z,24.20
2018-06-25T01:45:52.428Z,22.50
2018-06-25T01:46:52.421Z,25.30
2018-06-25T01:47:52.418Z,23.80
2018-06-25T01:48:52.420Z,26.40
2018-06-25T01:49:52.419Z,25.20
2018-06-25T01:50:52.410Z,26.30
2018-06-25T01:51:52.406Z,25.30
2018-06-25T01:52:52.403Z,24.00
2018-06-25T01:53:52.402Z,25.00
2018-06-25T01:54:52.403Z,23.10
2018-06-25T01:55:52.399Z,23.70
2018-06-25T01:56:52.398Z,23.90
2018-06-25T01:57:52.393Z,24.90
2018-06-25T01:58:52.386Z,24.90
2018-06-25T01:59:52.384Z,25.70
2018-06-25T02:00:52.381Z,26.20
2018-06-25T02:01:52.378Z,23.70
2018-06-25T02:02:52.381Z,24.30
2018-06-25T02:03:52.375Z,24.10
2018-06-25T02:04:52.368Z,23.90
2018-06-25T02:05:52.366Z,24.10
2018-06-25T02:06:52.367Z,25.00
2018-06-25T02:07:52.363Z,23.40
2018-06-25T02:08:52.362Z,25.80
2018-06-25T02:09:52.360Z,23.20
2018-06-25T02:10:52.352Z,24.30
2018-06-25T02:11:52.348Z,25.70
2018-06-25T02:12:52.345Z,25.40
2018-06-25T02:13:52.343Z,24.40
2018-06-25T02:14:52.344Z,25.70
2018-06-25T02:15:52.341Z,25.20
2018-06-25T02:16:52.339Z,24.30
2018-06-25T02:17:52.335Z,25.20
2018-06-25T02:18:52.329Z,25.40
2018-06-25T02:19:52.324Z,26.40
2018-06-25T02:20:52.326Z,24.30
2018-06-25T02:21:52.324Z,26.30
2018-06-25T02:22:52.319Z,27.90
2018-06-25T02:23:52.314Z,24.70
2018-06-25T02:24:52.311Z,25.80
2018-06-25T02:25:52.309Z,25.00
2018-06-25T02:26:52.312Z,24.20
2018-06-25T02:27:52.312Z,23.90
2018-06-25T02:28:52.307Z,26.10
2018-06-25T02:29:52.303Z,25.40
2018-06-25T02:30:52.295Z,25.50
2018-06-25T02:31:52.292Z,24.40
2018-06-25T02:32:52.289Z,24.40
2018-06-25T02:33:52.289Z,25.50
2018-06-25T02:34:52.290Z,26.50
2018-06-25T02:35:52.291Z,25.80
2018-06-25T02:36:52.278Z,24.80
2018-06-25T02:37:52.275Z,26.60
2018-06-25T02:38:52.277Z,25.30
2018-06-25T02:39:52.274Z,26.30
2018-06-25T02:40:52.276Z,26.70
2018-06-25T02:41:52.269Z,24.50
2018-06-25T02:42:52.260Z,27.00
2018-06-25T02:43:52.257Z,25.80
2018-06-25T02:44:52.254Z,27.90
2018-06-25T02:45:52.253Z,26.20
2018-06-25T02:46:52.259Z,26.30
2018-06-25T02:47:52.249Z,27.10
2018-06-25T02:48:52.247Z,27.30
2018-06-25T02:49:52.248Z,26.40
2018-06-25T02:50:52.238Z,28.20
2018-06-25T02:51:52.233Z,29.20
2018-06-25T02:52:52.235Z,28.70
2018-06-25T02:53:52.234Z,30.10
2018-06-25T02:54:52.225Z,30.90
2018-06-25T02:55:52.223Z,28.20
2018-06-25T02:56:52.219Z,29.00
2018-06-25T02:57:52.216Z,29.10
2018-06-25T02:58:52.218Z,28.50
2018-06-25T02:59:52.217Z,30.70
2018-06-25T03:00:52.212Z,30.70
2018-06-25T03:01:52.209Z,29.20
2018-06-25T03:02:52.203Z,28.80
2018-06-25T03:03:52.199Z,28.40
2018-06-25T03:04:52.195Z,29.40
2018-06-25T03:05:52.192Z,28.60
2018-06-25T03:06:52.209Z,26.70
2018-06-25T03:07:52.191Z,26.80
2018-06-25T03:08:52.183Z,27.20
2018-06-25T03:09:52.180Z,26.70
2018-06-25T03:10:52.181Z,25.20
2018-06-25T03:11:52.178Z,26.90
2018-06-25T03:12:52.175Z,25.50
2018-06-25T03:13:52.173Z,25.40
2018-06-25T03:14:52.165Z,26.20
2018-06-25T03:15:52.160Z,27.30
2018-06-25T03:16:52.158Z,26.70
2018-06-25T03:17:52.155Z,27.10
2018-06-25T03:18:52.163Z,26.40
2018-06-25T03:19:52.154Z,25.90
2018-06-25T03:20:52.150Z,25.80
2018-06-25T03:21:52.149Z,26.80
2018-06-25T03:22:52.140Z,26.80
2018-06-25T03:23:52.137Z,26.50
2018-06-25T03:24:52.139Z,24.40
2018-06-25T03:25:52.136Z,25.30
2018-06-25T03:26:52.128Z,25.10
2018-06-25T03:27:52.124Z,24.80
2018-06-25T03:28:52.121Z,25.50
2018-06-25T03:29:52.119Z,25.40
2018-06-25T03:30:52.120Z,24.40
2018-06-25T03:31:52.117Z,22.10
2018-06-25T03:32:52.114Z,22.90
2018-06-25T03:33:52.111Z,22.70
2018-06-25T03:34:52.104Z,21.90
2018-06-25T03:35:52.100Z,23.70
2018-06-25T03:36:52.098Z,22.80
2018-06-25T03:37:52.095Z,23.20
2018-06-25T03:38:52.099Z,20.80
2018-06-25T03:39:52.094Z,23.40
2018-06-25T03:40:52.090Z,22.50
2018-06-25T03:41:52.083Z,23.20
2018-06-25T03:42:52.086Z,21.40
2018-06-25T03:43:52.082Z,21.30
2018-06-25T03:44:52.081Z,20.70
2018-06-25T03:45:52.075Z,21.70
2018-06-25T03:46:52.068Z,21.90
2018-06-25T03:47:52.064Z,22.40
2018-06-25T03:48:52.077Z,21.70
2018-06-25T03:49:52.060Z,21.90
2018-06-25T03:50:52.061Z,21.80
2018-06-25T03:51:52.057Z,21.40
2018-06-25T03:52:52.054Z,23.90
2018-06-25T03:53:52.050Z,21.90
2018-06-25T03:54:52.044Z,21.30
2018-06-25T03:55:52.040Z,21.70
2018-06-25T03:56:52.042Z,21.20
2018-06-25T03:57:52.039Z,22.00
2018-06-25T03:58:52.032Z,20.90
2018-06-25T03:59:52.028Z,20.60
2018-06-25T04:00:52.026Z,21.30
2018-06-25T04:01:52.025Z,21.90
2018-06-25T04:02:52.025Z,21.20
2018-06-25T04:03:52.021Z,21.30
2018-06-25T04:04:52.018Z,21.10
2018-06-25T04:05:52.019Z,22.10
2018-06-25T04:06:52.008Z,21.00
2018-06-25T04:07:52.005Z,20.60
2018-06-25T04:08:52.001Z,21.30
2018-06-25T04:09:52.002Z,20.70
2018-06-25T04:10:52.001Z,20.00
2018-06-25T04:11:51.996Z,20.30
2018-06-25T04:12:51.989Z,21.50
2018-06-25T04:13:51.987Z,20.60
2018-06-25T04:14:51.988Z,21.40
2018-06-25T04:15:51.985Z,20.90
2018-06-25T04:16:51.984Z,19.00
2018-06-25T04:17:51.983Z,18.80
2018-06-25T04:18:51.972Z,19.50
2018-06-25T04:19:51.975Z,20.80
2018-06-25T04:20:51.967Z,19.60
2018-06-25T04:21:51.963Z,19.50
2018-06-25T04:22:51.966Z,20.10
2018-06-25T04:23:51.963Z,19.20
2018-06-25T04:24:51.967Z,19.00
2018-06-25T04:25:51.956Z,21.30
2018-06-25T04:26:51.949Z,19.90
2018-06-25T04:27:51.945Z,19.30
2018-06-25T04:28:51.946Z,20.50
2018-06-25T04:29:51.944Z,20.90
2018-06-25T04:30:51.937Z,21.30
2018-06-25T04:31:51.936Z,20.30
2018-06-25T04:32:51.931Z,20.50
2018-06-25T04:33:51.928Z,20.30
2018-06-25T04:34:51.929Z,20.90
2018-06-25T04:35:51.929Z,19.60
2018-06-25T04:36:51.924Z,20.30
2018-06-25T04:37:51.922Z,19.40
2018-06-25T04:38:51.914Z,19.90
2018-06-25T04:39:51.910Z,20.00
2018-06-25T04:40:51.909Z,20.30
2018-06-25T04:41:51.905Z,20.30
2018-06-25T04:42:51.907Z,18.90
2018-06-25T04:43:51.903Z,20.00
2018-06-25T04:44:51.899Z,20.00
2018-06-25T04:45:51.894Z,18.80
2018-06-25T04:46:51.897Z,19.80
2018-06-25T04:47:51.893Z,18.60
2018-06-25T04:48:51.891Z,18.40
2018-06-25T04:49:51.888Z,20.00
2018-06-25T04:50:51.882Z,18.20
2018-06-25T04:51:51.877Z,20.30
2018-06-25T04:52:51.875Z,19.00
2018-06-25T04:53:51.873Z,19.40
2018-06-25T04:54:51.875Z,17.30
2018-06-25T04:55:51.875Z,18.40
2018-06-25T04:56:51.870Z,17.50
2018-06-25T04:57:51.869Z,18.30
2018-06-25T04:58:51.861Z,19.40
2018-06-25T04:59:51.857Z,19.00
2018-06-25T05:00:51.893Z,17.80
2018-06-25T05:01:51.859Z,18.00
2018-06-25T05:02:51.851Z,18.10
2018-06-25T05:03:51.847Z,18.60
2018-06-25T05:04:51.844Z,18.90
2018-06-25T05:05:51.843Z,17.90
2018-06-25T05:06:51.845Z,17.90
2018-06-25T05:07:51.841Z,17.40
2018-06-25T05:08:51.871Z,16.90
2018-06-25T05:09:51.838Z,17.30
2018-06-25T05:10:51.831Z,18.00
2018-06-25T05:11:51.827Z,18.20
2018-06-25T05:12:51.825Z,18.20
2018-06-25T05:13:51.824Z,17.30
2018-06-25T05:14:51.826Z,17.50
2018-06-25T05:15:51.825Z,18.20
2018-06-25T05:16:51.817Z,18.90
2018-06-25T05:17:51.814Z,17.70
2018-06-25T05:18:51.817Z,17.70
2018-06-25T05:19:51.813Z,17.00
2018-06-25T05:20:51.814Z,19.10
2018-06-25T05:21:51.809Z,19.10
2018-06-25T05:22:51.802Z,19.40
2018-06-25T05:23:51.800Z,20.40
2018-06-25T05:24:51.798Z,19.90
2018-06-25T05:25:51.797Z,21.00
2018-06-25T05:26:51.798Z,20.80
2018-06-25T05:27:51.798Z,21.00
2018-06-25T05:28:51.793Z,22.40
2018-06-25T05:29:51.792Z,22.80
2018-06-25T05:30:51.784Z,23.80
2018-06-25T05:31:51.783Z,24.40
2018-06-25T05:32:51.784Z,24.70
2018-06-25T05:33:51.782Z,24.70
2018-06-25T05:34:51.775Z,24.40
2018-06-25T05:35:51.772Z,25.90
2018-06-25T05:36:51.770Z,24.00
2018-06-25T05:37:51.769Z,25.10
2018-06-25T05:38:51.770Z,24.50
2018-06-25T05:39:51.769Z,30.70
2018-06-25T05:40:51.767Z,23.50
2018-06-25T05:41:51.763Z,27.10
2018-06-25T05:42:51.756Z,25.60
2018-06-25T05:43:51.753Z,25.00
2018-06-25T05:44:51.753Z,27.10
2018-06-25T05:45:51.750Z,26.80
2018-06-25T05:46:51.752Z,25.20
2018-06-25T05:47:51.749Z,26.10
2018-06-25T05:48:51.790Z,25.40
2018-06-25T05:49:51.745Z,25.10
2018-06-25T05:50:51.743Z,28.60
2018-06-25T05:51:51.741Z,28.20
2018-06-25T05:52:51.737Z,27.70
2018-06-25T05:53:51.737Z,27.10
2018-06-25T05:54:51.729Z,26.80
2018-06-25T05:55:51.729Z,26.30
2018-06-25T05:56:51.728Z,27.10
2018-06-25T05:57:51.727Z,26.00
2018-06-25T05:58:51.729Z,29.70
2018-06-25T05:59:51.717Z,26.50
2018-06-25T06:00:51.715Z,26.10
2018-06-25T06:01:51.713Z,26.60
2018-06-25T06:02:51.735Z,28.60
2018-06-25T06:03:51.711Z,24.90
2018-06-25T06:04:51.705Z,23.70
2018-06-25T06:05:51.704Z,25.90
2018-06-25T06:06:51.706Z,26.60
2018-06-25T06:07:51.703Z,27.90
2018-06-25T06:08:51.702Z,26.50
2018-06-25T06:09:51.701Z,24.30
2018-06-25T06:10:51.704Z,29.30
2018-06-25T06:11:51.690Z,25.40
2018-06-25T06:12:51.689Z,24.70
2018-06-25T06:13:51.689Z,25.50
2018-06-25T06:14:51.691Z,25.10
2018-06-25T06:15:51.687Z,26.50
2018-06-25T06:16:51.685Z,26.90
2018-06-25T06:17:51.681Z,26.10
2018-06-25T06:18:51.676Z,27.90
2018-06-25T06:19:51.671Z,27.10
2018-06-25T06:20:51.674Z,25.20
2018-06-25T06:21:51.692Z,27.00
2018-06-25T06:22:51.665Z,28.20
2018-06-25T06:23:51.662Z,28.70
2018-06-25T06:24:51.661Z,29.70
2018-06-25T06:25:51.659Z,30.70
2018-06-25T06:26:51.662Z,29.70
2018-06-25T06:27:51.659Z,30.90
2018-06-25T06:28:51.658Z,33.40
2018-06-25T06:29:51.657Z,29.90
2018-06-25T06:30:51.648Z,27.10
2018-06-25T06:31:51.645Z,29.40
2018-06-25T06:32:51.642Z,26.70
2018-06-25T06:33:51.642Z,27.40
2018-06-25T06:34:51.646Z,30.70
2018-06-25T06:35:51.641Z,25.90
2018-06-25T06:36:51.636Z,28.40
2018-06-25T06:37:51.634Z,26.10
2018-06-25T06:38:51.637Z,27.20
2018-06-25T06:39:51.694Z,26.60
2018-06-25T06:40:51.633Z,29.00
2018-06-25T06:41:51.633Z,24.90
2018-06-25T06:42:51.627Z,26.30
2018-06-25T06:43:51.623Z,30.20
2018-06-25T06:44:51.622Z,25.90
2018-06-25T06:45:51.620Z,25.50
2018-06-25T06:46:51.625Z,25.00
2018-06-25T06:47:51.624Z,24.30
2018-06-25T06:48:51.619Z,23.80
2018-06-25T06:49:51.618Z,24.80
2018-06-25T06:50:51.615Z,24.30
2018-06-25T06:51:51.610Z,24.20
2018-06-25T06:52:51.613Z,24.10
2018-06-25T06:53:51.613Z,29.20
2018-06-25T06:54:51.606Z,23.60
2018-06-25T06:55:51.604Z,24.50
2018-06-25T06:56:51.602Z,23.00
2018-06-25T06:57:51.672Z,25.20
2018-06-25T06:58:51.606Z,25.80
2018-06-25T06:59:51.607Z,25.10
2018-06-25T07:00:51.600Z,25.40
2018-06-25T07:01:51.603Z,25.40
2018-06-25T07:02:51.594Z,23.80
2018-06-25T07:03:51.591Z,23.30
2018-06-25T07:04:51.593Z,22.20
2018-06-25T07:05:51.590Z,22.30
2018-06-25T07:06:51.593Z,23.20
2018-06-25T07:07:51.592Z,23.70
2018-06-25T07:08:51.585Z,21.70
2018-06-25T07:09:51.585Z,21.30
2018-06-25T07:10:51.590Z,22.00
2018-06-25T07:11:51.588Z,21.30
2018-06-25T07:12:51.587Z,19.80
2018-06-25T07:13:51.584Z,21.80
2018-06-25T07:14:51.580Z,25.30
2018-06-25T07:15:51.576Z,21.90
2018-06-25T07:16:51.576Z,23.80
2018-06-25T07:17:51.578Z,22.30
2018-06-25T07:18:51.578Z,24.20
2018-06-25T07:19:51.577Z,22.30
2018-06-25T07:20:51.611Z,23.20
2018-06-25T07:21:51.576Z,22.00
2018-06-25T07:22:51.569Z,26.50
2018-06-25T07:23:51.567Z,24.40
2018-06-25T07:24:51.570Z,22.50
2018-06-25T07:25:51.569Z,26.60
2018-06-25T07:26:51.563Z,23.40
2018-06-25T07:27:51.560Z,25.70
2018-06-25T07:28:51.617Z,25.10
2018-06-25T07:29:51.588Z,23.70
2018-06-25T07:30:51.562Z,26.40
2018-06-25T07:31:51.560Z,23.30
2018-06-25T07:32:51.560Z,20.50
2018-06-25T07:33:51.558Z,22.70
2018-06-25T07:34:51.553Z,23.80
2018-06-25T07:35:51.551Z,22.20
2018-06-25T07:36:51.551Z,22.00
2018-06-25T07:37:51.550Z,23.50
2018-06-25T07:38:51.553Z,21.00
2018-06-25T07:39:51.553Z,25.00
2018-06-25T07:40:51.547Z,20.40
2018-06-25T07:41:51.545Z,20.80
2018-06-25T07:42:51.551Z,21.70
2018-06-25T07:43:51.547Z,22.60
2018-06-25T07:44:51.550Z,23.20
2018-06-25T07:45:51.545Z,24.20
2018-06-25T07:46:51.542Z,23.70
2018-06-25T07:47:51.541Z,22.40
2018-06-25T07:48:51.538Z,25.30
2018-06-25T07:49:51.538Z,24.70
2018-06-25T07:50:51.544Z,25.90
2018-06-25T07:51:51.539Z,26.30
2018-06-25T07:52:51.540Z,22.30
2018-06-25T07:53:51.538Z,25.10
2018-06-25T07:54:51.534Z,20.70
2018-06-25T07:55:51.531Z,25.10
2018-06-25T07:56:51.536Z,24.60
2018-06-25T07:57:51.536Z,25.20
2018-06-25T07:58:51.529Z,22.60
2018-06-25T07:59:51.529Z,22.30
2018-06-25T08:00:51.527Z,23.60
2018-06-25T08:01:51.527Z,23.80
2018-06-25T08:02:51.532Z,23.70
2018-06-25T08:03:51.529Z,23.60
2018-06-25T08:04:51.529Z,21.30
2018-06-25T08:05:51.530Z,22.90
2018-06-25T08:06:51.524Z,23.80
2018-06-25T08:07:51.523Z,21.90
2018-06-25T08:08:51.522Z,22.10
2018-06-25T08:09:51.583Z,20.90
2018-06-25T08:10:51.527Z,20.00
2018-06-25T08:11:51.525Z,21.80
2018-06-25T08:12:51.523Z,21.30
2018-06-25T08:13:51.522Z,26.90
2018-06-25T08:14:51.527Z,21.30
2018-06-25T08:15:51.525Z,22.00
2018-06-25T08:16:51.527Z,20.80
2018-06-25T08:17:51.527Z,20.90
2018-06-25T08:18:51.525Z,20.90
2018-06-25T08:19:51.522Z,23.00
2018-06-25T08:20:51.523Z,21.10
2018-06-25T08:21:51.523Z,24.50
2018-06-25T08:22:51.529Z,22.90
2018-06-25T08:23:51.529Z,20.40
2018-06-25T08:24:51.528Z,25.40
2018-06-25T08:25:51.529Z,20.00
2018-06-25T08:26:51.525Z,20.70
2018-06-25T08:27:51.523Z,20.20
2018-06-25T08:28:51.529Z,19.70
2018-06-25T08:29:51.588Z,22.60
2018-06-25T08:30:51.527Z,20.40
2018-06-25T08:31:51.525Z,19.60
2018-06-25T08:32:51.525Z,19.70
2018-06-25T08:33:51.691Z,20.70
2018-06-25T08:34:51.530Z,21.10
2018-06-25T08:35:51.530Z,18.90
2018-06-25T08:36:51.535Z,18.20
2018-06-25T08:37:51.538Z,18.10
2018-06-25T08:38:51.529Z,17.90
2018-06-25T08:39:51.527Z,18.00
2018-06-25T08:40:51.529Z,18.10
2018-06-25T08:41:51.529Z,18.10
2018-06-25T08:42:51.538Z,22.00
2018-06-25T08:43:51.532Z,18.10
2018-06-25T08:44:51.529Z,17.70
2018-06-25T08:45:51.586Z,16.20
2018-06-25T08:46:51.535Z,18.70
2018-06-25T08:47:51.537Z,17.90
2018-06-25T08:48:51.538Z,16.90
2018-06-25T08:49:51.541Z,17.80
2018-06-25T08:50:51.537Z,18.70
2018-06-25T08:51:51.578Z,20.30
2018-06-25T08:52:51.539Z,18.20
2018-06-25T08:53:51.540Z,18.30
2018-06-25T08:54:51.546Z,22.10
2018-06-25T08:55:51.547Z,19.40
2018-06-25T08:56:51.552Z,19.50
2018-06-25T08:57:51.550Z,17.90
2018-06-25T08:58:51.547Z,21.40
2018-06-25T08:59:51.547Z,17.50
2018-06-25T09:00:51.553Z,20.80
2018-06-25T09:01:51.555Z,23.20
2018-06-25T09:02:51.552Z,18.30
2018-06-25T09:03:51.553Z,18.30
2018-06-25T09:04:51.554Z,19.10
2018-06-25T09:05:51.555Z,23.20
2018-06-25T09:06:51.566Z,19.00
2018-06-25T09:07:51.562Z,18.40
2018-06-25T09:08:51.561Z,18.40
2018-06-25T09:09:51.615Z,18.70
2018-06-25T09:10:51.559Z,19.20
2018-06-25T09:11:51.559Z,21.00
2018-06-25T09:12:51.560Z,17.70
2018-06-25T09:13:51.561Z,18.20
2018-06-25T09:14:51.567Z,16.40
2018-06-25T09:15:51.567Z,17.50
2018-06-25T09:16:51.564Z,16.10
2018-06-25T09:17:51.566Z,17.30
2018-06-25T09:18:51.571Z,16.90
2018-06-25T09:19:51.573Z,17.50
2018-06-25T09:20:51.574Z,16.80
2018-06-25T09:21:51.577Z,16.30
2018-06-25T09:22:51.574Z,17.00
2018-06-25T09:23:51.576Z,16.30
2018-06-25T09:24:51.579Z,16.70
2018-06-25T09:25:51.581Z,14.80
2018-06-25T09:26:51.589Z,15.30
2018-06-25T09:27:51.600Z,18.80
2018-06-25T09:28:51.595Z,15.90
2018-06-25T09:29:51.599Z,14.80
2018-06-25T09:30:51.598Z,15.70
2018-06-25T09:31:51.600Z,14.90
2018-06-25T09:32:51.609Z,15.10
2018-06-25T09:33:51.613Z,15.10
2018-06-25T09:34:51.613Z,15.80
2018-06-25T09:35:51.614Z,16.70
2018-06-25T09:36:51.618Z,16.10
2018-06-25T09:37:51.621Z,16.40
2018-06-25T09:38:51.630Z,16.00
2018-06-25T09:39:51.633Z,15.80
2018-06-25T09:40:51.643Z,16.80
2018-06-25T09:41:51.640Z,18.30
2018-06-25T09:42:51.640Z,16.30
2018-06-25T09:43:51.642Z,16.70
2018-06-25T09:44:51.647Z,16.00
2018-06-25T09:45:51.664Z,16.90
2018-06-25T09:46:51.713Z,18.10
2018-06-25T09:47:51.661Z,19.50
2018-06-25T09:48:51.660Z,21.30
2018-06-25T09:49:51.663Z,22.60
2018-06-25T09:50:51.675Z,24.80
2018-06-25T09:51:51.675Z,23.80
2018-06-25T09:52:51.677Z,24.30
2018-06-25T09:53:51.681Z,23.50
2018-06-25T09:54:51.791Z,23.30
2018-06-25T09:55:51.684Z,23.80
2018-06-25T09:56:51.687Z,23.90
2018-06-25T09:57:51.691Z,23.30
2018-06-25T09:58:51.700Z,25.30
2018-06-25T09:59:51.703Z,26.80
2018-06-25T10:00:51.705Z,28.00
2018-06-25T10:01:51.709Z,25.40
2018-06-25T10:02:51.708Z,26.60
2018-06-25T10:03:51.711Z,23.50
2018-06-25T10:04:51.719Z,24.70
2018-06-25T10:05:51.723Z,26.00
2018-06-25T10:06:51.721Z,25.30
2018-06-25T10:07:51.723Z,25.40
2018-06-25T10:08:51.726Z,25.50
2018-06-25T10:09:51.759Z,25.80
2018-06-25T10:10:51.737Z,24.60
2018-06-25T10:11:51.739Z,24.50
2018-06-25T10:12:51.742Z,23.80
2018-06-25T10:13:51.745Z,25.00
2018-06-25T10:14:51.744Z,23.40
2018-06-25T10:15:51.745Z,23.60
2018-06-25T10:16:51.750Z,25.40
2018-06-25T10:17:51.752Z,24.10
2018-06-25T10:18:51.760Z,25.20
2018-06-25T10:19:51.763Z,25.40
2018-06-25T10:20:51.761Z,27.20
2018-06-25T10:21:51.764Z,26.00
2018-06-25T10:22:51.773Z,26.90
2018-06-25T10:23:51.775Z,25.90
2018-06-25T10:24:51.777Z,24.70
2018-06-25T10:25:51.779Z,25.30
2018-06-25T10:26:51.777Z,24.70
2018-06-25T10:27:51.779Z,26.50
2018-06-25T10:28:51.782Z,23.90
2018-06-25T10:29:51.786Z,23.60
2018-06-25T10:30:51.791Z,26.70
2018-06-25T10:31:51.792Z,35.90
2018-06-25T10:32:51.797Z,29.80
2018-06-25T10:33:51.799Z,26.30
2018-06-25T10:34:51.853Z,23.90
2018-06-25T10:35:51.799Z,24.60
2018-06-25T10:36:51.806Z,22.50
2018-06-25T10:37:51.811Z,23.20
2018-06-25T10:38:51.806Z,25.00
2018-06-25T10:39:51.808Z,21.90
2018-06-25T10:40:51.812Z,21.80
2018-06-25T10:41:51.812Z,21.60
2018-06-25T10:42:51.823Z,20.80
2018-06-25T10:43:51.826Z,22.60
2018-06-25T10:44:51.828Z,19.60
2018-06-25T10:45:51.829Z,19.20
2018-06-25T10:46:51.828Z,18.70
2018-06-25T10:47:51.830Z,19.30
2018-06-25T10:48:51.834Z,20.80
2018-06-25T10:49:51.837Z,20.50
2018-06-25T10:50:51.846Z,19.90
2018-06-25T10:51:51.847Z,21.80
2018-06-25T10:52:51.845Z,23.00
2018-06-25T10:53:51.849Z,19.70
2018-06-25T10:54:51.856Z,20.80
2018-06-25T10:55:51.858Z,20.10
2018-06-25T10:56:51.861Z,20.00
2018-06-25T10:57:51.864Z,19.00
2018-06-25T10:58:51.863Z,18.70
2018-06-25T10:59:51.990Z,19.40
2018-06-25T11:00:51.868Z,18.80
2018-06-25T11:01:51.873Z,21.30
2018-06-25T11:02:51.878Z,19.00
2018-06-25T11:03:51.881Z,19.10
2018-06-25T11:04:51.884Z,21.40
2018-06-25T11:05:51.894Z,19.80
2018-06-25T11:06:51.885Z,19.40
2018-06-25T11:07:51.891Z,19.50
2018-06-25T11:08:51.896Z,18.70
2018-06-25T11:09:51.898Z,25.20
2018-06-25T11:10:51.906Z,19.40
2018-06-25T11:11:51.898Z,19.00
2018-06-25T11:12:52.010Z,19.00
2018-06-25T11:13:51.903Z,19.60
2018-06-25T11:14:51.912Z,19.20
2018-06-25T11:15:51.911Z,20.00
2018-06-25T11:16:51.917Z,18.50
2018-06-25T11:17:51.916Z,18.70
2018-06-25T11:18:51.919Z,18.00
2018-06-25T11:19:51.915Z,17.00
2018-06-25T11:20:51.917Z,17.80
2018-06-25T11:21:51.920Z,17.80
2018-06-25T11:22:51.927Z,18.00
2018-06-25T11:23:51.927Z,17.10
2018-06-25T11:24:51.925Z,17.10
2018-06-25T11:25:51.928Z,17.30
2018-06-25T11:26:52.038Z,17.30
2018-06-25T11:27:51.972Z,17.40
2018-06-25T11:28:51.937Z,16.80
2018-06-25T11:29:51.951Z,16.80
2018-06-25T11:30:51.937Z,17.10
2018-06-25T11:31:51.941Z,17.00
2018-06-25T11:32:51.940Z,16.30
2018-06-25T11:33:51.943Z,16.90
2018-06-25T11:34:51.950Z,16.70
2018-06-25T11:35:51.949Z,16.70
2018-06-25T11:36:51.952Z,16.00
2018-06-25T11:37:51.954Z,16.60
2018-06-25T11:38:51.951Z,17.30
2018-06-25T11:39:51.952Z,16.20
2018-06-25T11:40:51.959Z,16.10
2018-06-25T11:41:52.000Z,16.20
2018-06-25T11:42:51.959Z,16.00
2018-06-25T11:43:51.965Z,15.70
2018-06-25T11:44:51.963Z,15.70
2018-06-25T11:45:51.964Z,18.00
2018-06-25T11:46:51.972Z,15.80
2018-06-25T11:47:51.978Z,15.90
2018-06-25T11:48:51.974Z,16.80
2018-06-25T11:49:51.976Z,15.40
2018-06-25T11:50:51.975Z,15.80
2018-06-25T11:51:51.975Z,15.80
2018-06-25T11:52:51.977Z,15.90
2018-06-25T11:53:51.979Z,15.00
2018-06-25T11:54:51.985Z,15.30
2018-06-25T11:55:51.986Z,15.80
2018-06-25T11:56:51.984Z,15.40
2018-06-25T11:57:51.986Z,15.70
2018-06-25T11:58:51.993Z,15.70
2018-06-25T11:59:51.994Z,16.40
2018-06-25T12:00:51.996Z,16.20
2018-06-25T12:01:52.009Z,16.00
2018-06-25T12:02:52.074Z,15.70
2018-06-25T12:03:51.998Z,15.50
2018-06-25T12:04:52.002Z,15.70
2018-06-25T12:05:52.002Z,15.50
2018-06-25T12:06:52.011Z,16.70
2018-06-25T12:07:52.013Z,15.40
2018-06-25T12:08:52.013Z,15.10
2018-06-25T12:09:52.017Z,15.60
2018-06-25T12:10:52.013Z,14.70
2018-06-25T12:11:52.019Z,16.30
2018-06-25T12:12:52.023Z,15.50
2018-06-25T12:13:52.026Z,15.20
2018-06-25T12:14:52.023Z,15.20
2018-06-25T12:15:52.025Z,17.50
2018-06-25T12:16:52.027Z,15.40
2018-06-25T12:17:52.031Z,15.20
2018-06-25T12:18:52.039Z,15.40
2018-06-25T12:19:52.098Z,15.80
2018-06-25T12:20:52.041Z,15.20
2018-06-25T12:21:52.045Z,15.50
2018-06-25T12:22:52.046Z,15.50
2018-06-25T12:23:52.045Z,15.00
2018-06-25T12:24:52.048Z,15.20
2018-06-25T12:25:52.052Z,13.80
2018-06-25T12:26:52.060Z,13.90
2018-06-25T12:27:52.119Z,17.10
2018-06-25T12:28:52.061Z,13.90
2018-06-25T12:29:52.065Z,13.70
2018-06-25T12:30:52.072Z,14.30
2018-06-25T12:31:52.083Z,14.10
2018-06-25T12:32:52.082Z,13.80
2018-06-25T12:33:52.082Z,14.80
2018-06-25T12:34:52.081Z,14.50
2018-06-25T12:35:52.088Z,14.60
2018-06-25T12:36:52.092Z,14.10
2018-06-25T12:37:52.102Z,14.10
2018-06-25T12:38:52.101Z,14.00
2018-06-25T12:39:52.104Z,13.90
2018-06-25T12:40:52.110Z,14.00
2018-06-25T12:41:52.113Z,14.20
2018-06-25T12:42:52.112Z,14.60
2018-06-25T12:43:52.115Z,13.90
2018-06-25T12:44:52.124Z,14.80
2018-06-25T12:45:52.129Z,14.70
2018-06-25T12:46:52.130Z,14.40
2018-06-25T12:47:52.133Z,13.80
2018-06-25T12:48:52.136Z,13.30
2018-06-25T12:49:52.140Z,13.00
2018-06-25T12:50:52.149Z,14.60
2018-06-25T12:51:52.156Z,13.60
2018-06-25T12:52:52.157Z,13.60